Time;durP1;ratioP1;P1;durP2;ratioP2;P2;SDS_P1;SDS_P2;PMS_P1;PMS_P2;Temp;Humidity;BMP_temperature;BMP_pressure;BME280_temperature;BME280_humidity;BME280_pressure;Samples;Min_cycle;Max_cycle;Signal;HPM_P1;HPM_P2
2023/10/31 00:02:02;;;;;;;18.58;4.68;;;;;;;;;;6280936;28;20444;-71
2023/10/31 00:05:06;;;;;;;10.85;4.78;;;;;;;;;;6280592;28;20299;-71
2023/10/31 00:08:10;;;;;;;14.00;4.68;;;;;;;;;;6280890;28;20290;-71
2023/10/31 00:11:14;;;;;;;13.40;4.10;;;;;;;;;;6279461;28;20287;-71
2023/10/31 00:14:18;;;;;;;8.93;4.65;;;;;;;;;;6280210;28;20433;-71
2023/10/31 00:17:35;;;;;;;8.25;4.13;;;;;;;;;;6279862;28;20275;-71
2023/10/31 00:20:38;;;;;;;9.27;4.15;;;;;;;;;;6280145;28;20294;-71
2023/10/31 00:23:45;;;;;;;13.43;4.32;;;;;;;;;;6279940;28;20337;-71
2023/10/31 00:26:49;;;;;;;9.95;4.03;;;;;;;;;;6280539;28;20263;-71
2023/10/31 00:29:53;;;;;;;12.30;4.50;;;;;;;;;;6262312;28;20432;-72
2023/10/31 00:32:58;;;;;;;13.40;3.75;;;;;;;;;;6262857;28;20597;-72
2023/10/31 00:36:02;;;;;;;9.40;3.65;;;;;;;;;;6261486;28;20298;-72
2023/10/31 00:39:06;;;;;;;8.60;3.72;;;;;;;;;;6280053;28;20314;-71
2023/10/31 00:42:10;;;;;;;11.73;3.85;;;;;;;;;;6280511;28;20315;-71
2023/10/31 00:45:13;;;;;;;10.40;3.85;;;;;;;;;;6279842;28;20303;-71
2023/10/31 00:48:19;;;;;;;12.98;3.88;;;;;;;;;;6279563;28;20292;-71
2023/10/31 00:51:23;;;;;;;7.63;3.55;;;;;;;;;;6281242;28;20298;-70
2023/10/31 00:54:27;;;;;;;15.40;3.50;;;;;;;;;;6264798;28;20294;-72
2023/10/31 00:57:30;;;;;;;9.50;3.45;;;;;;;;;;6284877;28;20614;-71
2023/10/31 01:00:37;;;;;;;9.68;3.63;;;;;;;;;;6284391;28;20526;-71
2023/10/31 01:03:43;;;;;;;10.55;2.83;;;;;;;;;;6284585;28;20299;-70
2023/10/31 01:06:47;;;;;;;8.68;3.10;;;;;;;;;;6283143;28;20283;-71
2023/10/31 01:09:50;;;;;;;7.97;3.08;;;;;;;;;;6284114;28;20299;-71
2023/10/31 01:12:54;;;;;;;13.07;3.05;;;;;;;;;;6265544;28;20398;-71
2023/10/31 01:15:58;;;;;;;10.65;3.40;;;;;;;;;;6266025;28;20299;-72
2023/10/31 01:19:04;;;;;;;13.88;2.72;;;;;;;;;;6284062;28;20290;-70
2023/10/31 01:22:07;;;;;;;6.97;3.05;;;;;;;;;;6266121;28;20493;-70
2023/10/31 01:25:11;;;;;;;4.38;2.60;;;;;;;;;;6265942;28;20303;-70
2023/10/31 01:28:15;;;;;;;8.52;2.50;;;;;;;;;;6284154;28;20299;-71
2023/10/31 01:31:19;;;;;;;10.48;3.00;;;;;;;;;;6284653;28;20564;-71
2023/10/31 01:34:24;;;;;;;6.05;2.90;;;;;;;;;;6283740;28;20294;-73
2023/10/31 01:37:28;;;;;;;8.27;3.13;;;;;;;;;;6283898;28;20295;-72
2023/10/31 01:40:32;;;;;;;6.97;2.72;;;;;;;;;;6264738;28;20295;-71
2023/10/31 01:43:38;;;;;;;7.22;2.95;;;;;;;;;;6264593;28;20302;-71
2023/10/31 01:46:41;;;;;;;9.27;3.05;;;;;;;;;;6283678;28;20316;-71
2023/10/31 01:49:47;;;;;;;12.45;3.67;;;;;;;;;;6283397;28;20303;-71
2023/10/31 01:52:51;;;;;;;13.07;3.08;;;;;;;;;;6281413;28;20238;-70
2023/10/31 01:55:56;;;;;;;6.70;2.55;;;;;;;;;;6283609;28;20489;-70
2023/10/31 01:59:00;;;;;;;8.30;3.05;;;;;;;;;;6283067;28;20294;-71
2023/10/31 02:02:05;;;;;;;13.40;3.05;;;;;;;;;;6264427;28;20310;-70
2023/10/31 02:05:10;;;;;;;7.32;3.38;;;;;;;;;;6282073;28;20307;-71
2023/10/31 02:08:14;;;;;;;5.40;2.95;;;;;;;;;;6264232;28;20483;-70
2023/10/31 02:11:18;;;;;;;9.77;2.90;;;;;;;;;;6264253;28;20223;-70
2023/10/31 02:14:23;;;;;;;9.93;3.13;;;;;;;;;;6282490;28;20510;-71
2023/10/31 02:17:26;;;;;;;8.65;3.10;;;;;;;;;;6264657;28;20295;-71
2023/10/31 02:20:32;;;;;;;9.32;3.22;;;;;;;;;;6263986;28;20286;-70
2023/10/31 02:23:37;;;;;;;13.45;3.00;;;;;;;;;;6262683;28;20347;-70
2023/10/31 02:26:40;;;;;;;9.32;3.22;;;;;;;;;;6282656;28;20247;-71
2023/10/31 02:29:44;;;;;;;3.67;3.03;;;;;;;;;;6282393;28;20286;-70
2023/10/31 02:32:48;;;;;;;12.05;3.05;;;;;;;;;;6282529;28;20275;-71
2023/10/31 02:35:53;;;;;;;7.25;3.00;;;;;;;;;;6263543;28;20304;-71
2023/10/31 02:38:58;;;;;;;11.20;3.88;;;;;;;;;;6281793;28;20440;-71
2023/10/31 02:42:02;;;;;;;9.65;3.67;;;;;;;;;;6282610;28;20287;-72
2023/10/31 02:45:07;;;;;;;8.05;3.20;;;;;;;;;;6255157;28;20303;-72
2023/10/31 02:48:11;;;;;;;6.18;3.30;;;;;;;;;;6256796;28;20466;-72
2023/10/31 02:51:15;;;;;;;11.80;3.47;;;;;;;;;;6256927;28;20307;-72
2023/10/31 02:54:21;;;;;;;8.82;3.40;;;;;;;;;;6254872;28;20383;-72
2023/10/31 02:57:25;;;;;;;8.45;3.50;;;;;;;;;;6255708;28;20295;-72
2023/10/31 03:00:28;;;;;;;10.55;3.80;;;;;;;;;;6256687;28;20296;-71
2023/10/31 03:03:32;;;;;;;8.13;3.40;;;;;;;;;;6256600;28;20565;-71
2023/10/31 03:06:36;;;;;;;8.50;3.50;;;;;;;;;;6255165;28;20319;-72
2023/10/31 03:09:41;;;;;;;13.32;3.67;;;;;;;;;;6256647;28;20304;-71
2023/10/31 03:12:45;;;;;;;6.47;3.13;;;;;;;;;;6256776;28;20326;-71
2023/10/31 03:15:49;;;;;;;6.80;3.80;;;;;;;;;;6253454;28;20288;-71
2023/10/31 03:18:53;;;;;;;9.20;3.60;;;;;;;;;;6256187;28;20299;-71
2023/10/31 03:21:57;;;;;;;10.05;3.45;;;;;;;;;;6256571;28;20284;-70
2023/10/31 03:25:02;;;;;;;5.25;3.45;;;;;;;;;;6256112;28;20298;-71
2023/10/31 03:28:18;;;;;;;7.47;4.00;;;;;;;;;;6256288;28;20307;-71
2023/10/31 03:31:21;;;;;;;14.90;3.92;;;;;;;;;;6254185;28;20328;-71
2023/10/31 03:34:26;;;;;;;8.05;4.40;;;;;;;;;;6256123;28;20311;-71
2023/10/31 03:37:29;;;;;;;13.63;4.00;;;;;;;;;;6257695;28;20295;-71
2023/10/31 03:40:34;;;;;;;8.55;4.25;;;;;;;;;;6255760;28;20596;-71
2023/10/31 03:43:38;;;;;;;16.95;4.63;;;;;;;;;;6260046;28;20294;-71
2023/10/31 03:46:42;;;;;;;11.75;4.13;;;;;;;;;;6280691;28;20303;-71
2023/10/31 03:49:46;;;;;;;8.70;3.70;;;;;;;;;;6262246;28;20295;-70
2023/10/31 03:52:49;;;;;;;7.72;4.18;;;;;;;;;;6260407;28;20383;-71
2023/10/31 03:55:54;;;;;;;6.40;3.78;;;;;;;;;;6261459;28;20476;-71
2023/10/31 03:58:58;;;;;;;11.90;4.13;;;;;;;;;;6262035;28;20339;-72
2023/10/31 04:02:02;;;;;;;4.63;3.63;;;;;;;;;;6268169;28;20649;-71
2023/10/31 04:05:07;;;;;;;11.65;3.90;;;;;;;;;;6278245;28;20310;-71
2023/10/31 04:08:11;;;;;;;9.25;3.90;;;;;;;;;;6261993;28;20302;-70
2023/10/31 04:11:16;;;;;;;8.60;3.90;;;;;;;;;;6280272;28;20306;-70
2023/10/31 04:14:20;;;;;;;14.63;3.85;;;;;;;;;;6279826;28;20307;-71
2023/10/31 04:17:24;;;;;;;5.45;3.67;;;;;;;;;;6280451;28;20555;-71
2023/10/31 04:20:27;;;;;;;7.22;3.47;;;;;;;;;;6280058;28;20608;-72
2023/10/31 04:23:31;;;;;;;11.25;3.97;;;;;;;;;;6279849;28;20292;-69
2023/10/31 04:26:36;;;;;;;10.73;3.95;;;;;;;;;;6280603;28;20263;-70
2023/10/31 04:29:40;;;;;;;7.15;3.92;;;;;;;;;;6284906;28;20330;-71
2023/10/31 04:32:44;;;;;;;6.28;3.58;;;;;;;;;;6284714;28;20276;-71
2023/10/31 04:35:48;;;;;;;7.05;3.83;;;;;;;;;;6285242;28;20247;-71
2023/10/31 04:38:52;;;;;;;11.63;4.05;;;;;;;;;;6284453;28;20302;-70
2023/10/31 04:41:57;;;;;;;4.78;3.67;;;;;;;;;;6285135;28;20591;-71
2023/10/31 04:45:00;;;;;;;9.68;3.97;;;;;;;;;;6284277;28;20298;-71
2023/10/31 04:48:04;;;;;;;6.40;3.72;;;;;;;;;;6283959;28;20421;-71
2023/10/31 04:51:08;;;;;;;6.53;4.10;;;;;;;;;;6284568;28;20558;-71
2023/10/31 04:54:12;;;;;;;11.18;4.25;;;;;;;;;;6282420;28;20303;-70
2023/10/31 04:57:17;;;;;;;10.75;3.88;;;;;;;;;;6284762;28;20591;-71
2023/10/31 05:00:21;;;;;;;6.20;4.43;;;;;;;;;;6284208;28;20290;-71
2023/10/31 05:03:24;;;;;;;17.95;4.70;;;;;;;;;;6283877;28;20307;-71
2023/10/31 05:06:28;;;;;;;7.07;3.75;;;;;;;;;;6284431;28;20294;-71
2023/10/31 05:09:32;;;;;;;7.53;4.40;;;;;;;;;;6283772;28;20615;-71
2023/10/31 05:12:37;;;;;;;6.88;4.10;;;;;;;;;;6283689;28;20291;-71
2023/10/31 05:15:41;;;;;;;11.13;4.50;;;;;;;;;;6284498;28;20299;-71
2023/10/31 05:18:45;;;;;;;7.68;3.90;;;;;;;;;;6284074;28;20314;-71
2023/10/31 05:21:49;;;;;;;8.45;3.72;;;;;;;;;;6284358;28;20302;-71
2023/10/31 05:24:52;;;;;;;7.72;4.03;;;;;;;;;;6283491;28;20307;-71
2023/10/31 05:27:58;;;;;;;9.68;4.00;;;;;;;;;;6283375;28;20299;-71
2023/10/31 05:31:01;;;;;;;9.23;4.05;;;;;;;;;;6284066;28;20347;-71
2023/10/31 05:34:05;;;;;;;10.52;4.28;;;;;;;;;;6283579;28;20302;-72
2023/10/31 05:37:09;;;;;;;10.80;4.15;;;;;;;;;;6283649;28;20299;-72
2023/10/31 05:40:14;;;;;;;8.95;3.88;;;;;;;;;;6282141;28;20290;-71
2023/10/31 05:43:19;;;;;;;6.40;4.05;;;;;;;;;;6283264;28;20323;-70
2023/10/31 05:46:22;;;;;;;10.02;4.30;;;;;;;;;;6284141;28;20299;-75
2023/10/31 05:49:26;;;;;;;11.20;4.15;;;;;;;;;;6283358;28;20513;-71
2023/10/31 05:52:31;;;;;;;11.25;4.43;;;;;;;;;;6283409;28;20306;-71
2023/10/31 05:55:35;;;;;;;13.13;3.92;;;;;;;;;;6281228;28;20291;-71
2023/10/31 05:58:41;;;;;;;10.88;4.22;;;;;;;;;;6282951;28;20346;-71
2023/10/31 06:01:44;;;;;;;7.38;4.03;;;;;;;;;;6283122;28;20603;-72
2023/10/31 06:04:48;;;;;;;7.68;4.65;;;;;;;;;;6282850;28;20306;-71
2023/10/31 06:07:52;;;;;;;5.80;3.90;;;;;;;;;;6282536;28;20302;-72
2023/10/31 06:10:56;;;;;;;10.32;4.30;;;;;;;;;;6283689;28;20591;-71
2023/10/31 06:14:02;;;;;;;6.28;4.07;;;;;;;;;;6264712;28;20299;-71
2023/10/31 06:17:06;;;;;;;10.18;4.20;;;;;;;;;;6282755;28;20299;-71
2023/10/31 06:20:10;;;;;;;9.93;4.30;;;;;;;;;;6282973;28;20299;-72
2023/10/31 06:23:14;;;;;;;8.20;4.15;;;;;;;;;;6282750;28;20295;-71
2023/10/31 06:26:19;;;;;;;5.20;3.97;;;;;;;;;;6283273;28;20299;-75
2023/10/31 06:29:24;;;;;;;11.43;4.18;;;;;;;;;;6282954;28;20303;-70
2023/10/31 06:32:31;;;;;;;9.55;4.13;;;;;;;;;;6282879;28;20468;-70
2023/10/31 06:35:34;;;;;;;7.60;4.50;;;;;;;;;;6281215;28;20306;-71
2023/10/31 06:38:38;;;;;;;10.55;4.75;;;;;;;;;;6282159;28;20831;-70
2023/10/31 06:41:42;;;;;;;11.15;4.65;;;;;;;;;;6282735;28;20259;-70
2023/10/31 06:44:47;;;;;;;12.93;5.10;;;;;;;;;;6282063;28;20319;-69
2023/10/31 06:47:51;;;;;;;14.87;5.47;;;;;;;;;;6281377;28;20491;-72
2023/10/31 06:50:55;;;;;;;8.85;5.22;;;;;;;;;;6282210;28;20313;-71
2023/10/31 06:53:59;;;;;;;8.85;4.55;;;;;;;;;;6280497;28;20331;-72
2023/10/31 06:57:02;;;;;;;11.70;4.35;;;;;;;;;;6283114;28;20278;-74
2023/10/31 07:00:09;;;;;;;11.57;4.47;;;;;;;;;;6282670;28;20291;-72
2023/10/31 07:03:15;;;;;;;13.23;4.57;;;;;;;;;;6282093;28;20299;-71
2023/10/31 07:06:21;;;;;;;8.15;4.65;;;;;;;;;;6264125;28;20294;-71
2023/10/31 07:09:24;;;;;;;14.98;5.07;;;;;;;;;;6282017;28;20634;-71
2023/10/31 07:12:28;;;;;;;7.82;4.35;;;;;;;;;;6239529;28;20303;-71
2023/10/31 07:15:38;;;;;;;17.77;4.82;;;;;;;;;;6257025;28;20299;-71
2023/10/31 07:18:42;;;;;;;17.02;4.53;;;;;;;;;;6257342;28;20655;-70
2023/10/31 07:21:46;;;;;;;16.23;4.85;;;;;;;;;;6257159;28;20444;-71
2023/10/31 07:24:49;;;;;;;10.40;4.50;;;;;;;;;;6256990;28;20291;-70
2023/10/31 07:27:53;;;;;;;7.50;4.60;;;;;;;;;;6256773;28;20802;-72
2023/10/31 07:30:58;;;;;;;15.40;5.05;;;;;;;;;;6257206;28;20295;-72
2023/10/31 07:34:02;;;;;;;13.30;4.78;;;;;;;;;;6256707;28;20291;-71
2023/10/31 07:37:06;;;;;;;14.80;5.10;;;;;;;;;;6256294;28;20304;-70
2023/10/31 07:40:12;;;;;;;13.25;4.75;;;;;;;;;;6224692;28;20475;-71
2023/10/31 07:43:16;;;;;;;7.65;4.55;;;;;;;;;;6245600;28;20319;-71
2023/10/31 07:46:21;;;;;;;15.40;5.65;;;;;;;;;;6256462;28;20334;-73
2023/10/31 07:49:25;;;;;;;15.52;5.50;;;;;;;;;;6255863;28;20307;-72
2023/10/31 07:52:28;;;;;;;11.20;6.35;;;;;;;;;;6256113;28;20319;-72
2023/10/31 07:55:32;;;;;;;13.40;5.78;;;;;;;;;;6253666;28;20299;-73
2023/10/31 07:58:36;;;;;;;15.25;5.50;;;;;;;;;;6255468;28;20308;-75
2023/10/31 08:01:41;;;;;;;6.30;4.35;;;;;;;;;;6255602;28;20616;-72
2023/10/31 08:04:45;;;;;;;10.90;3.83;;;;;;;;;;6255200;28;20356;-72
2023/10/31 08:07:49;;;;;;;6.50;3.85;;;;;;;;;;6255727;28;20303;-72
2023/10/31 08:10:53;;;;;;;4.38;3.25;;;;;;;;;;6267736;28;20294;-72
2023/10/31 08:13:56;;;;;;;5.45;3.17;;;;;;;;;;6278252;28;20306;-71
2023/10/31 08:17:02;;;;;;;3.22;3.03;;;;;;;;;;6280385;28;20487;-71
2023/10/31 08:20:07;;;;;;;5.07;3.00;;;;;;;;;;6280127;28;20440;-73
2023/10/31 08:23:11;;;;;;;10.52;3.42;;;;;;;;;;6280236;28;20369;-72
2023/10/31 08:26:14;;;;;;;7.32;3.30;;;;;;;;;;6280772;28;20295;-72
2023/10/31 08:29:18;;;;;;;8.23;3.35;;;;;;;;;;6279856;28;20381;-71
2023/10/31 08:32:24;;;;;;;6.90;3.65;;;;;;;;;;6280452;28;20307;-71
2023/10/31 08:35:28;;;;;;;9.27;3.47;;;;;;;;;;6279878;28;20290;-73
2023/10/31 08:38:32;;;;;;;9.50;4.00;;;;;;;;;;6279249;28;20598;-72
2023/10/31 08:41:37;;;;;;;9.48;4.20;;;;;;;;;;6280291;28;20529;-74
2023/10/31 08:44:41;;;;;;;9.57;4.53;;;;;;;;;;6280113;28;20646;-72
2023/10/31 08:47:46;;;;;;;11.93;4.75;;;;;;;;;;6279528;28;20240;-73
2023/10/31 08:50:50;;;;;;;7.20;4.05;;;;;;;;;;6280035;28;20279;-71
2023/10/31 08:53:54;;;;;;;5.65;3.90;;;;;;;;;;6277855;28;20306;-71
2023/10/31 08:56:58;;;;;;;7.63;4.45;;;;;;;;;;6279995;28;20413;-72
2023/10/31 09:00:04;;;;;;;7.45;5.07;;;;;;;;;;6280266;28;20283;-72
2023/10/31 09:03:10;;;;;;;12.82;4.85;;;;;;;;;;6280104;28;20362;-71
2023/10/31 09:06:14;;;;;;;10.85;5.05;;;;;;;;;;6280336;28;20302;-72
2023/10/31 09:09:17;;;;;;;13.32;5.55;;;;;;;;;;6261632;28;20314;-71
2023/10/31 09:12:21;;;;;;;10.82;5.30;;;;;;;;;;6256684;28;20295;-71
2023/10/31 09:15:25;;;;;;;15.18;5.07;;;;;;;;;;6235932;28;20300;-72
2023/10/31 09:18:30;;;;;;;12.35;5.05;;;;;;;;;;6234807;28;20300;-72
2023/10/31 09:21:34;;;;;;;16.63;4.95;;;;;;;;;;6235199;28;20300;-72
2023/10/31 09:24:38;;;;;;;19.88;5.68;;;;;;;;;;6234653;28;20292;-71
2023/10/31 09:27:42;;;;;;;20.55;5.57;;;;;;;;;;6234604;28;20643;-71
2023/10/31 09:30:46;;;;;;;21.50;6.10;;;;;;;;;;6235048;28;20375;-72
2023/10/31 09:33:51;;;;;;;13.02;5.45;;;;;;;;;;6234149;28;20308;-73
2023/10/31 09:36:55;;;;;;;17.35;5.22;;;;;;;;;;6234403;28;20308;-71
2023/10/31 09:39:59;;;;;;;13.93;4.78;;;;;;;;;;6234086;28;20327;-72
2023/10/31 09:43:03;;;;;;;17.38;5.00;;;;;;;;;;6234241;28;20292;-72
2023/10/31 09:46:06;;;;;;;9.52;4.50;;;;;;;;;;6258740;28;20296;-75
2023/10/31 09:49:12;;;;;;;10.02;4.03;;;;;;;;;;6258731;28;20624;-72
2023/10/31 09:52:15;;;;;;;22.15;4.80;;;;;;;;;;6258727;28;20484;-72
2023/10/31 09:55:20;;;;;;;17.35;4.90;;;;;;;;;;6256584;28;20612;-71
2023/10/31 09:58:24;;;;;;;7.30;4.65;;;;;;;;;;6258123;28;20291;-71
2023/10/31 10:01:28;;;;;;;13.10;5.28;;;;;;;;;;6258627;28;20291;-71
2023/10/31 10:04:33;;;;;;;10.82;4.82;;;;;;;;;;6258536;28;20300;-71
2023/10/31 10:07:38;;;;;;;7.82;4.22;;;;;;;;;;6257608;28;20418;-71
2023/10/31 10:10:42;;;;;;;12.35;5.05;;;;;;;;;;6258417;28;20287;-72
2023/10/31 10:13:46;;;;;;;13.95;4.18;;;;;;;;;;6257907;28;20606;-73
2023/10/31 10:16:49;;;;;;;6.43;3.85;;;;;;;;;;6258181;28;20631;-73
2023/10/31 10:20:09;;;;;;;7.85;3.85;;;;;;;;;;6277242;28;20520;-71
2023/10/31 10:23:12;;;;;;;6.53;3.55;;;;;;;;;;6282359;28;20458;-71
2023/10/31 10:26:17;;;;;;;8.02;4.28;;;;;;;;;;6282189;28;20346;-72
2023/10/31 10:29:20;;;;;;;9.68;4.30;;;;;;;;;;6282166;28;20515;-72
2023/10/31 10:32:24;;;;;;;17.33;5.05;;;;;;;;;;6283026;28;20611;-73
2023/10/31 10:35:30;;;;;;;10.60;4.53;;;;;;;;;;6282156;28;20295;-72
2023/10/31 10:38:35;;;;;;;10.32;3.60;;;;;;;;;;6281419;28;20359;-72
2023/10/31 10:41:41;;;;;;;11.57;3.95;;;;;;;;;;6282609;28;20267;-72
2023/10/31 10:44:47;;;;;;;8.65;3.58;;;;;;;;;;6281702;28;20639;-72
2023/10/31 10:47:54;;;;;;;11.30;3.90;;;;;;;;;;6281695;28;20865;-71
2023/10/31 10:51:06;;;;;;;11.23;3.83;;;;;;;;;;6281990;28;20457;-72
2023/10/31 10:54:17;;;;;;;12.30;3.90;;;;;;;;;;6279806;28;20306;-72
2023/10/31 10:57:26;;;;;;;7.90;3.92;;;;;;;;;;6282015;28;20269;-72
2023/10/31 11:00:30;;;;;;;8.75;4.80;;;;;;;;;;6281619;28;20494;-74
2023/10/31 11:03:35;;;;;;;6.85;4.05;;;;;;;;;;6281387;28;20294;-73
2023/10/31 11:06:40;;;;;;;8.05;3.97;;;;;;;;;;6281955;28;20303;-71
2023/10/31 11:09:46;;;;;;;12.80;4.78;;;;;;;;;;6279440;28;20330;-72
2023/10/31 11:12:50;;;;;;;14.88;4.97;;;;;;;;;;6281574;28;20489;-73
2023/10/31 11:15:57;;;;;;;6.88;4.22;;;;;;;;;;6281241;28;20292;-71
2023/10/31 11:19:01;;;;;;;11.35;4.55;;;;;;;;;;6281018;28;20303;-74
2023/10/31 11:22:07;;;;;;;13.40;4.75;;;;;;;;;;6280588;28;20308;-73
2023/10/31 11:25:12;;;;;;;19.38;5.93;;;;;;;;;;6281588;28;20295;-73
2023/10/31 11:28:28;;;;;;;11.73;4.72;;;;;;;;;;6281250;28;20604;-72
2023/10/31 11:31:32;;;;;;;10.60;4.28;;;;;;;;;;6281760;28;20298;-71
2023/10/31 11:34:38;;;;;;;9.68;4.20;;;;;;;;;;6281109;28;20306;-72
2023/10/31 11:37:43;;;;;;;9.18;4.47;;;;;;;;;;6280085;28;20454;-72
2023/10/31 11:41:05;;;;;;;5.88;3.65;;;;;;;;;;6281680;28;20299;-72
2023/10/31 11:44:10;;;;;;;6.53;3.47;;;;;;;;;;6281060;28;20303;-72
2023/10/31 11:47:16;;;;;;;11.10;3.47;;;;;;;;;;6281329;28;20635;-72
2023/10/31 11:50:20;;;;;;;6.57;3.22;;;;;;;;;;6280995;28;20303;-72
2023/10/31 11:53:29;;;;;;;5.35;3.00;;;;;;;;;;6279299;28;20286;-72
2023/10/31 11:56:33;;;;;;;2.90;2.63;;;;;;;;;;6280468;28;20433;-72
2023/10/31 11:59:37;;;;;;;3.40;2.75;;;;;;;;;;6279016;28;20307;-73
2023/10/31 12:02:41;;;;;;;5.32;2.25;;;;;;;;;;6280356;28;20259;-71
2023/10/31 12:05:56;;;;;;;2.50;2.30;;;;;;;;;;6280966;28;20271;-72
2023/10/31 12:09:02;;;;;;;3.40;2.05;;;;;;;;;;6280758;28;20290;-71
2023/10/31 12:12:07;;;;;;;4.28;2.33;;;;;;;;;;6280563;28;20299;-72
2023/10/31 12:15:11;;;;;;;2.22;2.05;;;;;;;;;;6280740;28;20295;-71
2023/10/31 12:18:15;;;;;;;2.15;2.00;;;;;;;;;;6280720;28;20291;-71
2023/10/31 12:21:18;;;;;;;8.02;2.30;;;;;;;;;;6280691;28;20298;-71
2023/10/31 12:24:24;;;;;;;2.10;2.00;;;;;;;;;;6280283;28;20599;-72
2023/10/31 12:27:43;;;;;;;2.67;1.83;;;;;;;;;;6280557;28;20294;-72
2023/10/31 12:30:48;;;;;;;2.72;1.77;;;;;;;;;;6279545;28;20308;-72
2023/10/31 12:33:52;;;;;;;2.15;2.05;;;;;;;;;;6280021;28;20363;-72
2023/10/31 12:36:59;;;;;;;2.78;1.75;;;;;;;;;;6280523;28;20302;-72
2023/10/31 12:40:05;;;;;;;3.53;1.95;;;;;;;;;;6280395;28;20306;-72
2023/10/31 12:43:09;;;;;;;3.17;1.95;;;;;;;;;;6280071;28;20298;-71
2023/10/31 12:46:26;;;;;;;2.15;1.60;;;;;;;;;;6231328;28;20292;-73
2023/10/31 12:49:30;;;;;;;1.50;1.40;;;;;;;;;;6234801;28;20296;-71
2023/10/31 12:52:47;;;;;;;1.38;1.38;;;;;;;;;;6234371;28;20320;-72
2023/10/31 12:55:52;;;;;;;1.25;1.25;;;;;;;;;;6234841;28;20601;-72
2023/10/31 12:58:58;;;;;;;1.33;1.33;;;;;;;;;;6234876;28;20305;-72
2023/10/31 13:02:03;;;;;;;1.92;1.50;;;;;;;;;;6235345;28;20292;-73
2023/10/31 13:05:12;;;;;;;1.38;1.27;;;;;;;;;;6234928;28;20323;-72
2023/10/31 13:08:16;;;;;;;1.40;1.30;;;;;;;;;;6234814;28;20300;-72
2023/10/31 13:11:25;;;;;;;1.05;1.05;;;;;;;;;;6235771;28;20300;-72
2023/10/31 13:14:29;;;;;;;1.85;1.27;;;;;;;;;;6266779;28;20299;-71
2023/10/31 13:17:33;;;;;;;1.60;1.50;;;;;;;;;;6284107;28;20493;-73
2023/10/31 13:20:37;;;;;;;1.10;1.10;;;;;;;;;;6283865;28;20259;-72
2023/10/31 13:23:43;;;;;;;1.20;1.20;;;;;;;;;;6283717;28;20440;-71
2023/10/31 13:26:51;;;;;;;1.48;1.13;;;;;;;;;;6284161;28;20244;-71
2023/10/31 13:29:55;;;;;;;1.30;1.30;;;;;;;;;;6283620;28;20295;-72
2023/10/31 13:32:59;;;;;;;1.08;1.08;;;;;;;;;;6283710;28;20556;-71
2023/10/31 13:36:04;;;;;;;1.13;1.00;;;;;;;;;;6284120;28;20291;-72
2023/10/31 13:39:08;;;;;;;1.30;1.30;;;;;;;;;;6283352;28;20442;-72
2023/10/31 13:42:14;;;;;;;1.20;1.10;;;;;;;;;;6283854;28;20306;-72
2023/10/31 13:45:17;;;;;;;0.80;0.80;;;;;;;;;;6276892;28;20291;-70
2023/10/31 13:48:21;;;;;;;1.00;1.00;;;;;;;;;;6258346;28;20494;-71
2023/10/31 13:51:25;;;;;;;0.80;0.80;;;;;;;;;;6259035;28;20287;-74
2023/10/31 13:54:29;;;;;;;0.90;0.90;;;;;;;;;;6256676;28;20300;-72
2023/10/31 13:57:34;;;;;;;0.73;0.73;;;;;;;;;;6258708;28;20317;-69
2023/10/31 14:00:38;;;;;;;0.90;0.90;;;;;;;;;;6257045;28;20295;-71
2023/10/31 14:03:43;;;;;;;1.55;0.80;;;;;;;;;;6258034;28;20287;-71
2023/10/31 14:06:47;;;;;;;0.73;0.73;;;;;;;;;;6240596;28;20488;-71
2023/10/31 14:09:53;;;;;;;0.63;0.63;;;;;;;;;;6254877;28;20496;-72
2023/10/31 14:12:58;;;;;;;0.70;0.70;;;;;;;;;;6233338;28;20288;-71
2023/10/31 14:16:02;;;;;;;0.85;0.70;;;;;;;;;;6233860;28;20308;-72
2023/10/31 14:19:06;;;;;;;0.85;0.85;;;;;;;;;;6233326;28;20304;-73
2023/10/31 14:22:13;;;;;;;0.73;0.73;;;;;;;;;;6233746;28;20304;-71
2023/10/31 14:25:17;;;;;;;0.80;0.80;;;;;;;;;;6233409;28;20581;-71
2023/10/31 14:28:22;;;;;;;0.63;0.63;;;;;;;;;;6233797;28;20308;-72
2023/10/31 14:31:26;;;;;;;0.70;0.70;;;;;;;;;;6233973;28;20304;-70
2023/10/31 14:34:30;;;;;;;0.63;0.63;;;;;;;;;;6233771;28;20295;-72
2023/10/31 14:37:34;;;;;;;0.95;0.95;;;;;;;;;;6233805;28;20315;-72
2023/10/31 14:40:38;;;;;;;1.00;1.00;;;;;;;;;;6257200;28;20299;-71
2023/10/31 14:43:43;;;;;;;0.70;0.70;;;;;;;;;;6257573;28;20307;-73
2023/10/31 14:46:47;;;;;;;0.75;0.75;;;;;;;;;;6257845;28;20326;-71
2023/10/31 14:49:50;;;;;;;0.80;0.80;;;;;;;;;;6257124;28;20295;-70
2023/10/31 14:52:54;;;;;;;0.80;0.80;;;;;;;;;;6255048;28;20288;-72
2023/10/31 14:55:58;;;;;;;0.70;0.70;;;;;;;;;;6257774;28;20303;-71
2023/10/31 14:59:04;;;;;;;0.65;0.65;;;;;;;;;;6256823;28;20493;-71
2023/10/31 15:02:07;;;;;;;0.70;0.70;;;;;;;;;;6257364;28;20287;-71
2023/10/31 15:05:13;;;;;;;0.60;0.60;;;;;;;;;;6257038;28;20308;-72
2023/10/31 15:08:16;;;;;;;1.35;0.60;;;;;;;;;;6256928;28;20291;-72
2023/10/31 15:11:20;;;;;;;0.88;0.70;;;;;;;;;;6272369;28;20373;-72
2023/10/31 15:14:25;;;;;;;0.70;0.70;;;;;;;;;;6281447;28;20299;-71
2023/10/31 15:17:29;;;;;;;0.70;0.70;;;;;;;;;;6281704;28;20295;-72
2023/10/31 15:20:33;;;;;;;0.60;0.60;;;;;;;;;;6280924;28;20298;-72
2023/10/31 15:23:37;;;;;;;0.63;0.63;;;;;;;;;;6281067;28;20619;-71
2023/10/31 15:26:40;;;;;;;0.70;0.70;;;;;;;;;;6281596;28;20239;-72
2023/10/31 15:29:46;;;;;;;0.63;0.63;;;;;;;;;;6281285;28;20282;-71
2023/10/31 15:32:49;;;;;;;0.50;0.50;;;;;;;;;;6281194;28;20255;-72
2023/10/31 15:35:53;;;;;;;1.00;1.00;;;;;;;;;;6281824;28;20649;-71
2023/10/31 15:38:57;;;;;;;1.58;1.58;;;;;;;;;;6281107;28;20286;-71
2023/10/31 15:42:01;;;;;;;1.10;1.10;;;;;;;;;;6281808;28;20322;-72
2023/10/31 15:45:07;;;;;;;0.80;0.80;;;;;;;;;;6281141;28;20299;-71
2023/10/31 15:48:11;;;;;;;0.60;0.60;;;;;;;;;;6281641;28;20306;-72
2023/10/31 15:51:32;;;;;;;0.70;0.70;;;;;;;;;;6280008;28;20298;-73
2023/10/31 15:54:36;;;;;;;0.70;0.70;;;;;;;;;;6279172;28;20575;-72
2023/10/31 15:57:40;;;;;;;0.88;0.70;;;;;;;;;;6280768;28;20302;-72
2023/10/31 16:00:45;;;;;;;0.60;0.60;;;;;;;;;;6279216;28;20598;-70
2023/10/31 16:03:49;;;;;;;0.88;0.88;;;;;;;;;;6278680;28;20323;-72
2023/10/31 16:06:53;;;;;;;1.10;1.10;;;;;;;;;;6281218;28;20298;-71
2023/10/31 16:10:01;;;;;;;0.70;0.70;;;;;;;;;;6280698;28;20275;-71
2023/10/31 16:13:06;;;;;;;1.08;0.70;;;;;;;;;;6281077;28;20303;-71
2023/10/31 16:16:11;;;;;;;1.30;1.30;;;;;;;;;;6281304;28;20587;-72
2023/10/31 16:19:16;;;;;;;0.90;0.90;;;;;;;;;;6280685;28;20295;-71
2023/10/31 16:22:19;;;;;;;0.90;0.90;;;;;;;;;;6282396;28;20310;-72
2023/10/31 16:25:23;;;;;;;1.00;1.00;;;;;;;;;;6286475;28;20294;-71
2023/10/31 16:28:31;;;;;;;0.63;0.63;;;;;;;;;;6286247;28;20283;-71
2023/10/31 16:31:36;;;;;;;3.30;0.80;;;;;;;;;;6286344;28;20279;-70
2023/10/31 16:34:43;;;;;;;0.60;0.60;;;;;;;;;;6285555;28;20295;-71
2023/10/31 16:37:52;;;;;;;0.77;0.77;;;;;;;;;;6285568;28;20375;-71
2023/10/31 16:41:30;;;;;;;0.90;0.90;;;;;;;;;;6285122;28;20299;-72
2023/10/31 16:44:33;;;;;;;1.05;1.05;;;;;;;;;;6283962;28;20355;-72
2023/10/31 16:47:39;;;;;;;0.90;0.90;;;;;;;;;;6282991;28;20587;-70
2023/10/31 16:50:43;;;;;;;1.17;1.17;;;;;;;;;;6283890;28;20267;-73
2023/10/31 16:53:48;;;;;;;0.77;0.77;;;;;;;;;;6283303;28;20287;-72
2023/10/31 16:56:52;;;;;;;0.80;0.80;;;;;;;;;;6284034;28;20453;-72
2023/10/31 16:59:56;;;;;;;0.90;0.90;;;;;;;;;;6284855;28;20489;-72
2023/10/31 17:03:01;;;;;;;1.48;1.10;;;;;;;;;;6284560;28;20306;-71
2023/10/31 17:06:08;;;;;;;1.00;1.00;;;;;;;;;;6284086;28;20295;-71
2023/10/31 17:09:14;;;;;;;2.15;1.45;;;;;;;;;;6282648;28;20295;-71
2023/10/31 17:12:18;;;;;;;1.00;1.00;;;;;;;;;;6285016;28;20378;-71
2023/10/31 17:15:21;;;;;;;1.13;1.13;;;;;;;;;;6284633;28;20299;-71
2023/10/31 17:18:27;;;;;;;0.93;0.93;;;;;;;;;;6284847;28;20314;-73
2023/10/31 17:21:31;;;;;;;1.00;1.00;;;;;;;;;;6283770;28;20299;-72
2023/10/31 17:24:35;;;;;;;1.00;1.00;;;;;;;;;;6284476;28;20295;-73
2023/10/31 17:27:39;;;;;;;1.52;1.52;;;;;;;;;;6284570;28;20299;-72
2023/10/31 17:30:43;;;;;;;1.63;1.00;;;;;;;;;;6285086;28;20291;-70
2023/10/31 17:33:49;;;;;;;1.00;1.00;;;;;;;;;;6297639;28;20299;-71
2023/10/31 17:36:55;;;;;;;1.02;0.98;;;;;;;;;;6284902;28;20565;-71
2023/10/31 17:40:02;;;;;;;0.90;0.90;;;;;;;;;;6283954;28;20399;-72
2023/10/31 17:43:07;;;;;;;1.10;1.00;;;;;;;;;;6284001;28;20303;-71
2023/10/31 17:46:14;;;;;;;1.25;1.25;;;;;;;;;;6258244;28;20468;-71
2023/10/31 17:49:20;;;;;;;1.17;1.17;;;;;;;;;;6259237;28;20292;-72
2023/10/31 17:52:25;;;;;;;1.20;1.20;;;;;;;;;;6258909;28;20291;-73
2023/10/31 17:55:28;;;;;;;1.58;1.58;;;;;;;;;;6257445;28;20631;-70
2023/10/31 17:58:33;;;;;;;1.10;1.10;;;;;;;;;;6258743;28;20310;-69
2023/10/31 18:01:37;;;;;;;1.00;1.00;;;;;;;;;;6259167;28;20491;-72
2023/10/31 18:04:43;;;;;;;1.10;1.10;;;;;;;;;;6259016;28;20295;-70
2023/10/31 18:07:47;;;;;;;1.02;1.02;;;;;;;;;;6259225;28;20300;-71
2023/10/31 18:10:51;;;;;;;1.02;0.93;;;;;;;;;;6259108;28;20391;-71
2023/10/31 18:13:55;;;;;;;1.20;1.20;;;;;;;;;;6258517;28;20291;-72
2023/10/31 18:17:05;;;;;;;1.20;0.90;;;;;;;;;;6259024;28;20295;-73
2023/10/31 18:20:14;;;;;;;2.25;1.35;;;;;;;;;;6256942;28;20239;-72
2023/10/31 18:23:18;;;;;;;1.13;1.13;;;;;;;;;;6256944;28;20288;-71